New Wells, Missouri
Current Conditions -  °F | °C
As of 12:53 AM on Friday 28 Nov 2014 (Local Time) from KCGI Reporting Station
Clear Clear  
Wind Chill: 24°   Ceiling: Unl
Heat Index: 29°   Visibility: 8mi
Dew Point: 27°   Wind: 5mph
Humidity: 92%   Direction: 80°E
Pressure: 30.42"   Gusts: NA
Location:  37.5371°N, 89.5821°W
Report Text: KCGI 280653Z AUTO 08004KT 8SM CLR M02/M03 A3042 RMK AO2 SLP304 T10171028 TSNO
Loading
Personal Weather Stations






























Interactive Weather Map New forecast layout! Learn more

10-Day Weather Forecast

Advertisements
Track Severe Weather on mobile